CheckWX is a tool to help pilots better visualize weather data.  It is not intended as a substitute for an official pre-flight weather briefing.

13:51:00 UTC

KPNE TAF
Northeast Philadelphia Airport
Philadelphia, Pennsylvania, USA
KPNE 311257Z 3113/0112 08007KT P6SM SCT009 OVC015 TEMPO 3113/3115 2SM BR BKN008 FM311700 08006KT P6SM OVC015 FM311900 09006KT P6SM OVC025 FM312300 09007KT P6SM OVC035 FM011000 03006KT P6SM BKN060

Mar-31@
13:00 UTC

Mar-31 @ 13:00 UTC

Mar-31@
17:00 UTC

Mar-31 @ 17:00 UTC

TAF KPNE 311257Z 3113/0112 08007KT P6SM SCT009 OVC015
Wind
  • 080° at 7 KTS
Cloud Levels
  • Scattered at 900' AGL
  • Overcast at 1,500' AGL

Mar-31@
13:00 UTC

Mar-31 @ 13:00 UTC

Mar-31@
15:00 UTC

Mar-31 @ 15:00 UTC

TEMPO 3113/3115 2SM BR BKN008

Temporary

Temporary Changes expected for less than half the time period

Conditions
Mist
Cloud Levels
  • Broken at 800' AGL

Mar-31@
17:00 UTC

Mar-31 @ 17:00 UTC

Mar-31@
19:00 UTC

Mar-31 @ 19:00 UTC

FM311700 08006KT P6SM OVC015

From

From Standard forecast or significant change

Wind
  • 080° at 6 KTS
Cloud Levels
  • Overcast at 1,500' AGL

Mar-31@
19:00 UTC

Mar-31 @ 19:00 UTC

Mar-31@
23:00 UTC

Mar-31 @ 23:00 UTC

FM311900 09006KT P6SM OVC025

From

From Standard forecast or significant change

Wind
  • 090° at 6 KTS
Cloud Levels
  • Overcast at 2,500' AGL

Mar-31@
23:00 UTC

Mar-31 @ 23:00 UTC

Apr-1@
10:00 UTC

Apr-1 @ 10:00 UTC

FM312300 09007KT P6SM OVC035

From

From Standard forecast or significant change

Wind
  • 090° at 7 KTS
Cloud Levels
  • Overcast at 3,500' AGL

Apr-1@
10:00 UTC

Apr-1 @ 10:00 UTC

Apr-1@
12:00 UTC

Apr-1 @ 12:00 UTC

FM011000 03006KT P6SM BKN060

From

From Standard forecast or significant change

Wind
  • 030° at 6 KTS
Cloud Levels
  • Broken at 6,000' AGL